sensor_id;sensor_type;location;lat;lon;timestamp;temperature;humidity
40630;DHT22;26329;40.388;-3.710;2023-08-20T00:06:24;29.50;29.80
40630;DHT22;26329;40.388;-3.710;2023-08-20T00:16:25;29.40;29.70
40630;DHT22;26329;40.388;-3.710;2023-08-20T00:26:26;29.30;30.20
40630;DHT22;26329;40.388;-3.710;2023-08-20T00:36:27;29.10;30.20
40630;DHT22;26329;40.388;-3.710;2023-08-20T00:46:28;28.90;30.50
40630;DHT22;26329;40.388;-3.710;2023-08-20T00:56:29;28.70;30.90
40630;DHT22;26329;40.388;-3.710;2023-08-20T01:16:52;28.40;31.80
40630;DHT22;26329;40.388;-3.710;2023-08-20T01:27:32;28.30;31.90
40630;DHT22;26329;40.388;-3.710;2023-08-20T01:37:35;28.20;33.00
40630;DHT22;26329;40.388;-3.710;2023-08-20T01:47:36;28.00;33.10
40630;DHT22;26329;40.388;-3.710;2023-08-20T01:57:37;27.70;32.90
40630;DHT22;26329;40.388;-3.710;2023-08-20T02:07:38;27.60;32.60
40630;DHT22;26329;40.388;-3.710;2023-08-20T02:17:39;27.40;33.60
40630;DHT22;26329;40.388;-3.710;2023-08-20T02:27:39;27.10;34.60
40630;DHT22;26329;40.388;-3.710;2023-08-20T02:37:40;26.80;34.80
40630;DHT22;26329;40.388;-3.710;2023-08-20T02:47:42;26.70;34.50
40630;DHT22;26329;40.388;-3.710;2023-08-20T02:57:44;26.40;34.70
40630;DHT22;26329;40.388;-3.710;2023-08-20T03:07:44;26.10;35.00
40630;DHT22;26329;40.388;-3.710;2023-08-20T03:17:45;26.00;35.40
40630;DHT22;26329;40.388;-3.710;2023-08-20T03:27:46;25.90;35.50
40630;DHT22;26329;40.388;-3.710;2023-08-20T03:37:46;25.70;35.70
40630;DHT22;26329;40.388;-3.710;2023-08-20T03:47:47;25.60;36.00
40630;DHT22;26329;40.388;-3.710;2023-08-20T03:57:48;25.50;36.10
40630;DHT22;26329;40.388;-3.710;2023-08-20T04:07:48;25.50;36.00
40630;DHT22;26329;40.388;-3.710;2023-08-20T04:17:49;25.50;36.10
40630;DHT22;26329;40.388;-3.710;2023-08-20T04:27:50;25.30;36.50
40630;DHT22;26329;40.388;-3.710;2023-08-20T04:37:51;25.30;36.70
40630;DHT22;26329;40.388;-3.710;2023-08-20T04:47:51;25.30;36.70
40630;DHT22;26329;40.388;-3.710;2023-08-20T04:57:52;25.30;36.80
40630;DHT22;26329;40.388;-3.710;2023-08-20T05:07:53;25.40;36.80
40630;DHT22;26329;40.388;-3.710;2023-08-20T05:17:53;25.30;37.10
40630;DHT22;26329;40.388;-3.710;2023-08-20T05:27:54;25.00;37.50
40630;DHT22;26329;40.388;-3.710;2023-08-20T05:37:55;24.80;37.70
40630;DHT22;26329;40.388;-3.710;2023-08-20T05:47:56;24.80;37.90
40630;DHT22;26329;40.388;-3.710;2023-08-20T05:57:56;24.80;37.90
40630;DHT22;26329;40.388;-3.710;2023-08-20T06:07:57;24.70;37.90
40630;DHT22;26329;40.388;-3.710;2023-08-20T06:17:58;24.70;38.00
40630;DHT22;26329;40.388;-3.710;2023-08-20T06:27:58;24.60;38.10
40630;DHT22;26329;40.388;-3.710;2023-08-20T06:37:59;24.70;38.00
40630;DHT22;26329;40.388;-3.710;2023-08-20T06:48:00;24.80;37.80
40630;DHT22;26329;40.388;-3.710;2023-08-20T06:58:01;24.90;37.60
40630;DHT22;26329;40.388;-3.710;2023-08-20T07:08:01;25.20;37.10
40630;DHT22;26329;40.388;-3.710;2023-08-20T07:18:02;25.80;36.70
40630;DHT22;26329;40.388;-3.710;2023-08-20T07:28:03;26.60;35.80
40630;DHT22;26329;40.388;-3.710;2023-08-20T07:38:04;27.50;34.10
40630;DHT22;26329;40.388;-3.710;2023-08-20T07:48:05;28.10;32.60
40630;DHT22;26329;40.388;-3.710;2023-08-20T07:58:06;28.80;31.20
40630;DHT22;26329;40.388;-3.710;2023-08-20T08:08:07;29.20;31.30
40630;DHT22;26329;40.388;-3.710;2023-08-20T08:18:07;29.60;30.80
40630;DHT22;26329;40.388;-3.710;2023-08-20T08:28:08;29.70;30.20
40630;DHT22;26329;40.388;-3.710;2023-08-20T08:38:09;29.80;30.00
40630;DHT22;26329;40.388;-3.710;2023-08-20T08:48:10;30.20;29.80
40630;DHT22;26329;40.388;-3.710;2023-08-20T08:58:11;30.30;29.40
40630;DHT22;26329;40.388;-3.710;2023-08-20T09:08:19;30.40;29.20
40630;DHT22;26329;40.388;-3.710;2023-08-20T09:18:20;30.70;28.80
40630;DHT22;26329;40.388;-3.710;2023-08-20T09:28:21;31.00;28.70
40630;DHT22;26329;40.388;-3.710;2023-08-20T09:38:24;31.20;28.20
40630;DHT22;26329;40.388;-3.710;2023-08-20T09:48:27;31.30;27.70
40630;DHT22;26329;40.388;-3.710;2023-08-20T09:58:30;31.20;27.80
40630;DHT22;26329;40.388;-3.710;2023-08-20T10:08:32;31.50;27.50
40630;DHT22;26329;40.388;-3.710;2023-08-20T10:18:37;31.70;27.20
40630;DHT22;26329;40.388;-3.710;2023-08-20T10:28:39;32.00;27.20
40630;DHT22;26329;40.388;-3.710;2023-08-20T10:38:40;32.10;26.90
40630;DHT22;26329;40.388;-3.710;2023-08-20T10:48:42;32.40;26.60
40630;DHT22;26329;40.388;-3.710;2023-08-20T10:58:46;32.40;26.40
40630;DHT22;26329;40.388;-3.710;2023-08-20T11:08:47;32.70;26.10
40630;DHT22;26329;40.388;-3.710;2023-08-20T11:18:48;33.00;25.40
40630;DHT22;26329;40.388;-3.710;2023-08-20T11:28:48;33.30;25.50
40630;DHT22;26329;40.388;-3.710;2023-08-20T11:38:53;33.60;24.70
40630;DHT22;26329;40.388;-3.710;2023-08-20T11:49:07;33.80;24.80
40630;DHT22;26329;40.388;-3.710;2023-08-20T11:59:10;34.10;24.80
40630;DHT22;26329;40.388;-3.710;2023-08-20T12:09:22;34.30;24.70
40630;DHT22;26329;40.388;-3.710;2023-08-20T12:19:24;34.60;24.00
40630;DHT22;26329;40.388;-3.710;2023-08-20T12:29:25;34.70;23.20
40630;DHT22;26329;40.388;-3.710;2023-08-20T12:39:26;34.80;23.20
40630;DHT22;26329;40.388;-3.710;2023-08-20T12:49:27;35.10;22.70
40630;DHT22;26329;40.388;-3.710;2023-08-20T12:59:28;35.40;22.00
40630;DHT22;26329;40.388;-3.710;2023-08-20T13:09:29;35.70;20.50
40630;DHT22;26329;40.388;-3.710;2023-08-20T13:19:30;35.70;20.30
40630;DHT22;26329;40.388;-3.710;2023-08-20T13:29:30;35.60;20.40
40630;DHT22;26329;40.388;-3.710;2023-08-20T13:39:31;36.10;20.10
40630;DHT22;26329;40.388;-3.710;2023-08-20T13:49:32;36.30;19.10
40630;DHT22;26329;40.388;-3.710;2023-08-20T13:59:32;36.30;17.70
40630;DHT22;26329;40.388;-3.710;2023-08-20T14:09:33;36.30;18.00
40630;DHT22;26329;40.388;-3.710;2023-08-20T14:19:36;36.60;18.10
40630;DHT22;26329;40.388;-3.710;2023-08-20T14:29:37;36.60;17.00
40630;DHT22;26329;40.388;-3.710;2023-08-20T14:39:38;36.60;17.30
40630;DHT22;26329;40.388;-3.710;2023-08-20T14:49:38;36.30;17.30
40630;DHT22;26329;40.388;-3.710;2023-08-20T14:59:39;36.40;17.50
40630;DHT22;26329;40.388;-3.710;2023-08-20T15:09:40;36.70;16.60
40630;DHT22;26329;40.388;-3.710;2023-08-20T15:19:41;36.80;16.60
40630;DHT22;26329;40.388;-3.710;2023-08-20T15:29:41;36.70;16.70
40630;DHT22;26329;40.388;-3.710;2023-08-20T15:39:42;37.10;16.60
40630;DHT22;26329;40.388;-3.710;2023-08-20T15:49:43;37.10;16.40
40630;DHT22;26329;40.388;-3.710;2023-08-20T15:59:44;37.00;16.10
40630;DHT22;26329;40.388;-3.710;2023-08-20T16:09:44;36.90;16.50
40630;DHT22;26329;40.388;-3.710;2023-08-20T16:19:45;36.80;16.30
40630;DHT22;26329;40.388;-3.710;2023-08-20T16:29:46;36.70;16.70
40630;DHT22;26329;40.388;-3.710;2023-08-20T16:39:46;36.90;16.40
40630;DHT22;26329;40.388;-3.710;2023-08-20T16:49:47;36.80;16.60
40630;DHT22;26329;40.388;-3.710;2023-08-20T16:59:48;36.70;16.60
40630;DHT22;26329;40.388;-3.710;2023-08-20T17:09:49;36.60;16.80
40630;DHT22;26329;40.388;-3.710;2023-08-20T17:19:50;36.60;17.40
40630;DHT22;26329;40.388;-3.710;2023-08-20T17:29:51;36.40;18.00
40630;DHT22;26329;40.388;-3.710;2023-08-20T17:39:51;36.20;17.50
40630;DHT22;26329;40.388;-3.710;2023-08-20T17:49:52;36.20;17.60
40630;DHT22;26329;40.388;-3.710;2023-08-20T17:59:53;36.00;18.00
40630;DHT22;26329;40.388;-3.710;2023-08-20T18:09:54;36.00;17.90
40630;DHT22;26329;40.388;-3.710;2023-08-20T18:19:55;35.80;18.80
40630;DHT22;26329;40.388;-3.710;2023-08-20T18:29:56;35.50;19.00
40630;DHT22;26329;40.388;-3.710;2023-08-20T18:39:57;35.20;18.90
40630;DHT22;26329;40.388;-3.710;2023-08-20T18:49:58;35.00;19.00
40630;DHT22;26329;40.388;-3.710;2023-08-20T18:59:59;34.70;18.90
40630;DHT22;26329;40.388;-3.710;2023-08-20T19:09:59;34.40;19.20
40630;DHT22;26329;40.388;-3.710;2023-08-20T19:20:00;34.10;19.30
40630;DHT22;26329;40.388;-3.710;2023-08-20T19:30:01;33.80;19.80
40630;DHT22;26329;40.388;-3.710;2023-08-20T19:40:06;33.60;20.10
40630;DHT22;26329;40.388;-3.710;2023-08-20T19:50:09;33.30;21.10
40630;DHT22;26329;40.388;-3.710;2023-08-20T20:00:11;33.10;21.20
40630;DHT22;26329;40.388;-3.710;2023-08-20T20:10:12;33.00;21.70
40630;DHT22;26329;40.388;-3.710;2023-08-20T20:20:13;32.80;21.90
40630;DHT22;26329;40.388;-3.710;2023-08-20T20:30:14;32.70;21.90
40630;DHT22;26329;40.388;-3.710;2023-08-20T20:40:15;32.60;22.70
40630;DHT22;26329;40.388;-3.710;2023-08-20T20:50:16;32.50;22.60
40630;DHT22;26329;40.388;-3.710;2023-08-20T21:00:17;32.30;23.40
40630;DHT22;26329;40.388;-3.710;2023-08-20T21:10:18;32.10;23.60
40630;DHT22;26329;40.388;-3.710;2023-08-20T21:20:18;31.90;24.30
40630;DHT22;26329;40.388;-3.710;2023-08-20T21:30:19;31.70;24.10
40630;DHT22;26329;40.388;-3.710;2023-08-20T21:40:20;31.50;23.70
40630;DHT22;26329;40.388;-3.710;2023-08-20T21:50:21;31.20;24.30
40630;DHT22;26329;40.388;-3.710;2023-08-20T22:00:22;30.90;24.50
40630;DHT22;26329;40.388;-3.710;2023-08-20T22:10:22;30.60;24.40
40630;DHT22;26329;40.388;-3.710;2023-08-20T22:20:23;30.40;24.60
40630;DHT22;26329;40.388;-3.710;2023-08-20T22:30:24;30.40;24.60
40630;DHT22;26329;40.388;-3.710;2023-08-20T22:40:25;30.30;24.70
40630;DHT22;26329;40.388;-3.710;2023-08-20T22:50:26;30.20;25.00
40630;DHT22;26329;40.388;-3.710;2023-08-20T23:00:27;30.20;25.40
40630;DHT22;26329;40.388;-3.710;2023-08-20T23:10:28;29.80;25.70
40630;DHT22;26329;40.388;-3.710;2023-08-20T23:20:29;29.70;26.10
40630;DHT22;26329;40.388;-3.710;2023-08-20T23:30:29;29.40;26.00
40630;DHT22;26329;40.388;-3.710;2023-08-20T23:40:30;29.30;25.90
40630;DHT22;26329;40.388;-3.710;2023-08-20T23:50:31;29.30;26.00
